sensor_id;sensor_type;location;lat;lon;timestamp;P1;durP1;ratioP1;P2;durP2;ratioP2
27744;SDS011;61387;48.112;8.616;2023-06-10T00:01:34;8.23;;;5.73;;
27744;SDS011;61387;48.112;8.616;2023-06-10T00:04:01;7.60;;;5.70;;
27744;SDS011;61387;48.112;8.616;2023-06-10T00:06:27;7.03;;;5.50;;
27744;SDS011;61387;48.112;8.616;2023-06-10T00:08:53;8.20;;;5.23;;
27744;SDS011;61387;48.112;8.616;2023-06-10T00:11:20;9.23;;;6.40;;
27744;SDS011;61387;48.112;8.616;2023-06-10T00:13:46;8.70;;;6.07;;
27744;SDS011;61387;48.112;8.616;2023-06-10T00:16:12;9.73;;;6.20;;
27744;SDS011;61387;48.112;8.616;2023-06-10T00:18:37;7.80;;;5.95;;
27744;SDS011;61387;48.112;8.616;2023-06-10T00:21:04;7.70;;;6.23;;
27744;SDS011;61387;48.112;8.616;2023-06-10T00:23:29;8.00;;;6.43;;
27744;SDS011;61387;48.112;8.616;2023-06-10T00:26:03;8.43;;;6.27;;
27744;SDS011;61387;48.112;8.616;2023-06-10T00:28:29;8.47;;;6.27;;
27744;SDS011;61387;48.112;8.616;2023-06-10T00:30:55;8.00;;;6.00;;
27744;SDS011;61387;48.112;8.616;2023-06-10T00:33:22;8.27;;;6.67;;
27744;SDS011;61387;48.112;8.616;2023-06-10T00:35:48;9.17;;;5.87;;
27744;SDS011;61387;48.112;8.616;2023-06-10T00:38:13;9.53;;;6.53;;
27744;SDS011;61387;48.112;8.616;2023-06-10T00:40:40;9.03;;;6.40;;
27744;SDS011;61387;48.112;8.616;2023-06-10T00:43:06;8.33;;;6.17;;
27744;SDS011;61387;48.112;8.616;2023-06-10T00:45:32;8.73;;;6.17;;
27744;SDS011;61387;48.112;8.616;2023-06-10T00:47:58;8.10;;;6.33;;
27744;SDS011;61387;48.112;8.616;2023-06-10T00:50:25;7.67;;;6.20;;
27744;SDS011;61387;48.112;8.616;2023-06-10T00:52:51;7.37;;;5.70;;
27744;SDS011;61387;48.112;8.616;2023-06-10T00:55:19;9.23;;;6.17;;
27744;SDS011;61387;48.112;8.616;2023-06-10T00:57:45;8.63;;;5.93;;
27744;SDS011;61387;48.112;8.616;2023-06-10T01:00:13;8.30;;;5.87;;
27744;SDS011;61387;48.112;8.616;2023-06-10T01:02:40;7.93;;;6.20;;
27744;SDS011;61387;48.112;8.616;2023-06-10T01:05:06;8.10;;;6.00;;
27744;SDS011;61387;48.112;8.616;2023-06-10T01:07:35;7.87;;;5.83;;
27744;SDS011;61387;48.112;8.616;2023-06-10T01:10:11;8.70;;;6.43;;
27744;SDS011;61387;48.112;8.616;2023-06-10T01:12:42;7.83;;;6.10;;
27744;SDS011;61387;48.112;8.616;2023-06-10T01:15:13;8.60;;;6.30;;
27744;SDS011;61387;48.112;8.616;2023-06-10T01:17:59;9.40;;;6.93;;
27744;SDS011;61387;48.112;8.616;2023-06-10T01:20:27;8.63;;;6.53;;
27744;SDS011;61387;48.112;8.616;2023-06-10T01:22:56;9.90;;;6.77;;
27744;SDS011;61387;48.112;8.616;2023-06-10T01:25:23;7.30;;;6.20;;
27744;SDS011;61387;48.112;8.616;2023-06-10T01:28:03;8.83;;;6.50;;
27744;SDS011;61387;48.112;8.616;2023-06-10T01:33:43;8.80;;;6.20;;
27744;SDS011;61387;48.112;8.616;2023-06-10T01:36:12;10.43;;;6.07;;
27744;SDS011;61387;48.112;8.616;2023-06-10T01:38:41;9.40;;;6.47;;
27744;SDS011;61387;48.112;8.616;2023-06-10T01:41:09;10.90;;;6.73;;
27744;SDS011;61387;48.112;8.616;2023-06-10T01:43:37;10.13;;;6.70;;
27744;SDS011;61387;48.112;8.616;2023-06-10T01:46:03;8.57;;;6.20;;
27744;SDS011;61387;48.112;8.616;2023-06-10T01:48:29;8.30;;;6.43;;
27744;SDS011;61387;48.112;8.616;2023-06-10T01:50:55;9.47;;;6.90;;
27744;SDS011;61387;48.112;8.616;2023-06-10T01:53:21;9.30;;;6.50;;
27744;SDS011;61387;48.112;8.616;2023-06-10T01:55:47;8.63;;;6.17;;
27744;SDS011;61387;48.112;8.616;2023-06-10T01:58:13;8.30;;;6.60;;
27744;SDS011;61387;48.112;8.616;2023-06-10T02:00:39;8.57;;;5.87;;
27744;SDS011;61387;48.112;8.616;2023-06-10T02:03:05;8.93;;;6.30;;
27744;SDS011;61387;48.112;8.616;2023-06-10T02:05:31;8.83;;;6.43;;
27744;SDS011;61387;48.112;8.616;2023-06-10T02:07:57;9.43;;;6.83;;
27744;SDS011;61387;48.112;8.616;2023-06-10T02:10:23;9.40;;;6.37;;
27744;SDS011;61387;48.112;8.616;2023-06-10T02:12:49;10.40;;;6.70;;
27744;SDS011;61387;48.112;8.616;2023-06-10T02:15:15;9.03;;;6.90;;
27744;SDS011;61387;48.112;8.616;2023-06-10T02:17:40;8.63;;;6.50;;
27744;SDS011;61387;48.112;8.616;2023-06-10T02:20:06;9.73;;;6.37;;
27744;SDS011;61387;48.112;8.616;2023-06-10T02:22:35;8.70;;;6.40;;
27744;SDS011;61387;48.112;8.616;2023-06-10T02:25:01;11.00;;;6.90;;
27744;SDS011;61387;48.112;8.616;2023-06-10T02:27:28;9.60;;;6.90;;
27744;SDS011;61387;48.112;8.616;2023-06-10T02:29:55;8.80;;;6.80;;
27744;SDS011;61387;48.112;8.616;2023-06-10T02:32:21;8.47;;;6.63;;
27744;SDS011;61387;48.112;8.616;2023-06-10T02:34:47;8.90;;;6.87;;
27744;SDS011;61387;48.112;8.616;2023-06-10T02:37:14;8.00;;;6.80;;
27744;SDS011;61387;48.112;8.616;2023-06-10T02:39:39;8.77;;;7.07;;
27744;SDS011;61387;48.112;8.616;2023-06-10T02:42:06;9.57;;;6.77;;
27744;SDS011;61387;48.112;8.616;2023-06-10T02:44:31;8.97;;;6.73;;
27744;SDS011;61387;48.112;8.616;2023-06-10T02:46:57;9.50;;;6.77;;
27744;SDS011;61387;48.112;8.616;2023-06-10T02:49:23;8.40;;;7.00;;
27744;SDS011;61387;48.112;8.616;2023-06-10T02:51:50;8.83;;;6.80;;
27744;SDS011;61387;48.112;8.616;2023-06-10T02:54:18;9.50;;;6.90;;
27744;SDS011;61387;48.112;8.616;2023-06-10T02:56:44;8.40;;;6.77;;
27744;SDS011;61387;48.112;8.616;2023-06-10T02:59:10;11.83;;;7.37;;
27744;SDS011;61387;48.112;8.616;2023-06-10T03:01:36;10.77;;;7.43;;
27744;SDS011;61387;48.112;8.616;2023-06-10T03:04:06;10.07;;;7.60;;
27744;SDS011;61387;48.112;8.616;2023-06-10T03:06:31;9.83;;;7.37;;
27744;SDS011;61387;48.112;8.616;2023-06-10T03:09:01;10.57;;;7.33;;
27744;SDS011;61387;48.112;8.616;2023-06-10T03:11:27;9.10;;;7.20;;
27744;SDS011;61387;48.112;8.616;2023-06-10T03:13:53;11.07;;;7.73;;
27744;SDS011;61387;48.112;8.616;2023-06-10T03:16:19;10.30;;;7.70;;
27744;SDS011;61387;48.112;8.616;2023-06-10T03:18:45;8.40;;;7.03;;
27744;SDS011;61387;48.112;8.616;2023-06-10T03:21:11;11.90;;;7.70;;
27744;SDS011;61387;48.112;8.616;2023-06-10T03:23:37;8.97;;;7.37;;
27744;SDS011;61387;48.112;8.616;2023-06-10T03:26:03;9.67;;;7.70;;
27744;SDS011;61387;48.112;8.616;2023-06-10T03:28:29;11.67;;;8.07;;
27744;SDS011;61387;48.112;8.616;2023-06-10T03:30:55;10.57;;;7.77;;
27744;SDS011;61387;48.112;8.616;2023-06-10T03:33:21;10.33;;;7.73;;
27744;SDS011;61387;48.112;8.616;2023-06-10T03:35:47;10.53;;;8.07;;
27744;SDS011;61387;48.112;8.616;2023-06-10T03:38:13;11.10;;;7.97;;
27744;SDS011;61387;48.112;8.616;2023-06-10T03:40:39;10.57;;;7.43;;
27744;SDS011;61387;48.112;8.616;2023-06-10T03:43:05;9.97;;;7.53;;
27744;SDS011;61387;48.112;8.616;2023-06-10T03:45:31;10.10;;;7.30;;
27744;SDS011;61387;48.112;8.616;2023-06-10T03:47:58;11.63;;;7.57;;
27744;SDS011;61387;48.112;8.616;2023-06-10T03:50:23;11.87;;;7.33;;
27744;SDS011;61387;48.112;8.616;2023-06-10T03:52:50;10.53;;;7.33;;
27744;SDS011;61387;48.112;8.616;2023-06-10T03:55:16;10.63;;;7.20;;
27744;SDS011;61387;48.112;8.616;2023-06-10T03:57:42;9.63;;;7.07;;
27744;SDS011;61387;48.112;8.616;2023-06-10T04:00:08;8.97;;;6.30;;
27744;SDS011;61387;48.112;8.616;2023-06-10T04:02:38;9.50;;;6.53;;
27744;SDS011;61387;48.112;8.616;2023-06-10T04:05:14;9.70;;;7.53;;
27744;SDS011;61387;48.112;8.616;2023-06-10T04:07:43;9.30;;;7.07;;
27744;SDS011;61387;48.112;8.616;2023-06-10T04:10:10;8.90;;;7.07;;
27744;SDS011;61387;48.112;8.616;2023-06-10T04:12:36;9.77;;;7.10;;
27744;SDS011;61387;48.112;8.616;2023-06-10T04:15:03;10.30;;;6.93;;
27744;SDS011;61387;48.112;8.616;2023-06-10T04:17:29;10.93;;;7.57;;
27744;SDS011;61387;48.112;8.616;2023-06-10T04:19:55;10.77;;;7.13;;
27744;SDS011;61387;48.112;8.616;2023-06-10T04:22:21;10.13;;;7.73;;
27744;SDS011;61387;48.112;8.616;2023-06-10T04:24:48;10.87;;;7.00;;
27744;SDS011;61387;48.112;8.616;2023-06-10T04:27:14;9.63;;;7.77;;
27744;SDS011;61387;48.112;8.616;2023-06-10T04:29:40;8.83;;;6.93;;
27744;SDS011;61387;48.112;8.616;2023-06-10T04:32:06;10.10;;;7.07;;
27744;SDS011;61387;48.112;8.616;2023-06-10T04:34:35;9.60;;;7.60;;
27744;SDS011;61387;48.112;8.616;2023-06-10T04:37:04;12.20;;;7.17;;
27744;SDS011;61387;48.112;8.616;2023-06-10T04:39:30;8.97;;;7.40;;
27744;SDS011;61387;48.112;8.616;2023-06-10T04:41:56;9.77;;;7.07;;
27744;SDS011;61387;48.112;8.616;2023-06-10T04:44:22;10.13;;;7.07;;
27744;SDS011;61387;48.112;8.616;2023-06-10T04:46:48;9.97;;;7.27;;
27744;SDS011;61387;48.112;8.616;2023-06-10T04:49:13;10.63;;;7.97;;
27744;SDS011;61387;48.112;8.616;2023-06-10T04:51:41;10.43;;;7.80;;
27744;SDS011;61387;48.112;8.616;2023-06-10T04:54:07;10.20;;;7.60;;
27744;SDS011;61387;48.112;8.616;2023-06-10T04:56:33;10.00;;;7.43;;
27744;SDS011;61387;48.112;8.616;2023-06-10T04:58:59;11.23;;;7.70;;
27744;SDS011;61387;48.112;8.616;2023-06-10T05:01:25;10.50;;;8.10;;
27744;SDS011;61387;48.112;8.616;2023-06-10T05:03:52;8.87;;;7.53;;
27744;SDS011;61387;48.112;8.616;2023-06-10T05:06:18;10.23;;;7.50;;
27744;SDS011;61387;48.112;8.616;2023-06-10T05:08:44;9.40;;;7.30;;
27744;SDS011;61387;48.112;8.616;2023-06-10T05:11:10;9.33;;;7.20;;
27744;SDS011;61387;48.112;8.616;2023-06-10T05:13:35;10.63;;;7.53;;
27744;SDS011;61387;48.112;8.616;2023-06-10T05:16:01;10.80;;;7.70;;
27744;SDS011;61387;48.112;8.616;2023-06-10T05:18:27;10.50;;;7.47;;
27744;SDS011;61387;48.112;8.616;2023-06-10T05:20:53;10.63;;;8.37;;
27744;SDS011;61387;48.112;8.616;2023-06-10T05:23:19;11.03;;;8.20;;
27744;SDS011;61387;48.112;8.616;2023-06-10T05:25:45;10.57;;;8.23;;
27744;SDS011;61387;48.112;8.616;2023-06-10T05:28:12;11.03;;;7.57;;
27744;SDS011;61387;48.112;8.616;2023-06-10T05:30:37;9.93;;;7.97;;
27744;SDS011;61387;48.112;8.616;2023-06-10T05:33:03;11.87;;;8.13;;
27744;SDS011;61387;48.112;8.616;2023-06-10T05:35:29;10.00;;;8.27;;
27744;SDS011;61387;48.112;8.616;2023-06-10T05:37:55;9.43;;;7.93;;
27744;SDS011;61387;48.112;8.616;2023-06-10T05:40:21;11.17;;;8.23;;
27744;SDS011;61387;48.112;8.616;2023-06-10T05:42:46;11.60;;;9.10;;
27744;SDS011;61387;48.112;8.616;2023-06-10T05:45:12;11.00;;;8.07;;
27744;SDS011;61387;48.112;8.616;2023-06-10T05:47:38;11.00;;;9.73;;
27744;SDS011;61387;48.112;8.616;2023-06-10T05:50:05;12.47;;;9.40;;
27744;SDS011;61387;48.112;8.616;2023-06-10T05:52:32;13.13;;;8.90;;
27744;SDS011;61387;48.112;8.616;2023-06-10T05:54:58;11.33;;;8.77;;
27744;SDS011;61387;48.112;8.616;2023-06-10T05:57:25;10.63;;;9.17;;
27744;SDS011;61387;48.112;8.616;2023-06-10T05:59:51;11.27;;;8.87;;
27744;SDS011;61387;48.112;8.616;2023-06-10T06:02:16;10.67;;;8.57;;
27744;SDS011;61387;48.112;8.616;2023-06-10T06:04:43;11.57;;;8.50;;
27744;SDS011;61387;48.112;8.616;2023-06-10T06:07:08;9.43;;;8.20;;
27744;SDS011;61387;48.112;8.616;2023-06-10T06:09:40;10.77;;;8.97;;
27744;SDS011;61387;48.112;8.616;2023-06-10T06:12:06;11.83;;;8.07;;
27744;SDS011;61387;48.112;8.616;2023-06-10T06:14:32;11.10;;;8.87;;
27744;SDS011;61387;48.112;8.616;2023-06-10T06:16:58;11.63;;;9.03;;
27744;SDS011;61387;48.112;8.616;2023-06-10T06:19:24;11.07;;;8.23;;
27744;SDS011;61387;48.112;8.616;2023-06-10T06:21:50;11.93;;;8.80;;
27744;SDS011;61387;48.112;8.616;2023-06-10T06:24:16;11.77;;;9.07;;
27744;SDS011;61387;48.112;8.616;2023-06-10T06:26:42;10.30;;;8.40;;
27744;SDS011;61387;48.112;8.616;2023-06-10T06:29:07;11.30;;;8.20;;
27744;SDS011;61387;48.112;8.616;2023-06-10T06:31:33;12.33;;;8.90;;
27744;SDS011;61387;48.112;8.616;2023-06-10T06:33:59;10.00;;;8.07;;
27744;SDS011;61387;48.112;8.616;2023-06-10T06:36:25;12.70;;;8.80;;
27744;SDS011;61387;48.112;8.616;2023-06-10T06:38:51;10.67;;;8.10;;
27744;SDS011;61387;48.112;8.616;2023-06-10T06:41:16;10.77;;;8.20;;
27744;SDS011;61387;48.112;8.616;2023-06-10T06:43:42;11.70;;;8.63;;
27744;SDS011;61387;48.112;8.616;2023-06-10T06:46:09;10.30;;;8.10;;
27744;SDS011;61387;48.112;8.616;2023-06-10T06:48:34;10.97;;;8.20;;
27744;SDS011;61387;48.112;8.616;2023-06-10T06:51:00;8.73;;;7.77;;
27744;SDS011;61387;48.112;8.616;2023-06-10T06:53:25;10.57;;;8.80;;
27744;SDS011;61387;48.112;8.616;2023-06-10T06:55:51;10.77;;;8.10;;
27744;SDS011;61387;48.112;8.616;2023-06-10T06:58:17;9.80;;;7.93;;
27744;SDS011;61387;48.112;8.616;2023-06-10T07:00:43;9.07;;;7.47;;
27744;SDS011;61387;48.112;8.616;2023-06-10T07:03:09;10.17;;;7.97;;
27744;SDS011;61387;48.112;8.616;2023-06-10T07:05:34;9.17;;;7.77;;
27744;SDS011;61387;48.112;8.616;2023-06-10T07:08:00;9.70;;;7.97;;
27744;SDS011;61387;48.112;8.616;2023-06-10T07:10:26;11.33;;;7.90;;
27744;SDS011;61387;48.112;8.616;2023-06-10T07:12:53;10.07;;;8.03;;
27744;SDS011;61387;48.112;8.616;2023-06-10T07:15:19;9.97;;;8.27;;
27744;SDS011;61387;48.112;8.616;2023-06-10T07:17:45;9.23;;;7.73;;
27744;SDS011;61387;48.112;8.616;2023-06-10T07:20:10;9.97;;;7.77;;
27744;SDS011;61387;48.112;8.616;2023-06-10T07:22:36;10.53;;;8.53;;
27744;SDS011;61387;48.112;8.616;2023-06-10T07:25:04;10.87;;;8.27;;
27744;SDS011;61387;48.112;8.616;2023-06-10T07:27:30;9.80;;;8.20;;
27744;SDS011;61387;48.112;8.616;2023-06-10T07:29:55;9.47;;;7.57;;
27744;SDS011;61387;48.112;8.616;2023-06-10T07:32:21;10.87;;;7.93;;
27744;SDS011;61387;48.112;8.616;2023-06-10T07:34:48;11.13;;;8.00;;
27744;SDS011;61387;48.112;8.616;2023-06-10T07:37:14;11.10;;;8.40;;
27744;SDS011;61387;48.112;8.616;2023-06-10T07:39:40;9.47;;;8.20;;
27744;SDS011;61387;48.112;8.616;2023-06-10T07:42:08;10.35;;;7.93;;
27744;SDS011;61387;48.112;8.616;2023-06-10T07:44:33;10.50;;;8.25;;
27744;SDS011;61387;48.112;8.616;2023-06-10T07:46:59;9.30;;;7.65;;
27744;SDS011;61387;48.112;8.616;2023-06-10T07:49:35;9.53;;;7.93;;
27744;SDS011;61387;48.112;8.616;2023-06-10T07:52:01;8.70;;;7.65;;
27744;SDS011;61387;48.112;8.616;2023-06-10T07:54:27;9.43;;;7.83;;
27744;SDS011;61387;48.112;8.616;2023-06-10T07:56:52;11.30;;;7.70;;
27744;SDS011;61387;48.112;8.616;2023-06-10T07:59:18;10.07;;;8.50;;
27744;SDS011;61387;48.112;8.616;2023-06-10T08:01:44;11.40;;;8.60;;
27744;SDS011;61387;48.112;8.616;2023-06-10T08:04:10;12.10;;;8.65;;
27744;SDS011;61387;48.112;8.616;2023-06-10T08:06:35;9.20;;;7.50;;
27744;SDS011;61387;48.112;8.616;2023-06-10T08:09:02;9.35;;;8.10;;
27744;SDS011;61387;48.112;8.616;2023-06-10T08:11:28;9.95;;;7.60;;
27744;SDS011;61387;48.112;8.616;2023-06-10T08:13:54;9.55;;;7.95;;
27744;SDS011;61387;48.112;8.616;2023-06-10T08:16:20;9.37;;;7.30;;
27744;SDS011;61387;48.112;8.616;2023-06-10T08:18:46;9.20;;;7.27;;
27744;SDS011;61387;48.112;8.616;2023-06-10T08:21:12;10.27;;;7.17;;
27744;SDS011;61387;48.112;8.616;2023-06-10T08:23:38;9.90;;;7.25;;
27744;SDS011;61387;48.112;8.616;2023-06-10T08:26:04;10.07;;;7.63;;
27744;SDS011;61387;48.112;8.616;2023-06-10T08:28:29;9.60;;;7.23;;
27744;SDS011;61387;48.112;8.616;2023-06-10T08:30:55;8.50;;;7.43;;
27744;SDS011;61387;48.112;8.616;2023-06-10T08:33:21;10.35;;;7.57;;
27744;SDS011;61387;48.112;8.616;2023-06-10T08:35:46;9.23;;;7.05;;
27744;SDS011;61387;48.112;8.616;2023-06-10T08:38:12;8.75;;;7.12;;
27744;SDS011;61387;48.112;8.616;2023-06-10T08:40:38;9.48;;;6.90;;
27744;SDS011;61387;48.112;8.616;2023-06-10T08:43:09;9.02;;;7.40;;
27744;SDS011;61387;48.112;8.616;2023-06-10T08:45:42;8.93;;;6.82;;
27744;SDS011;61387;48.112;8.616;2023-06-10T08:48:11;8.65;;;6.87;;
27744;SDS011;61387;48.112;8.616;2023-06-10T08:50:38;8.00;;;6.70;;
27744;SDS011;61387;48.112;8.616;2023-06-10T08:53:06;7.90;;;6.82;;
27744;SDS011;61387;48.112;8.616;2023-06-10T08:55:36;8.80;;;7.03;;
27744;SDS011;61387;48.112;8.616;2023-06-10T08:58:03;8.45;;;7.05;;
27744;SDS011;61387;48.112;8.616;2023-06-10T09:00:29;8.80;;;7.10;;
27744;SDS011;61387;48.112;8.616;2023-06-10T09:02:56;9.15;;;7.57;;
27744;SDS011;61387;48.112;8.616;2023-06-10T09:05:23;9.85;;;7.43;;
27744;SDS011;61387;48.112;8.616;2023-06-10T09:07:49;8.93;;;7.20;;
27744;SDS011;61387;48.112;8.616;2023-06-10T09:10:16;8.27;;;6.75;;
27744;SDS011;61387;48.112;8.616;2023-06-10T09:12:42;9.87;;;7.00;;
27744;SDS011;61387;48.112;8.616;2023-06-10T09:15:08;8.93;;;7.10;;
27744;SDS011;61387;48.112;8.616;2023-06-10T09:17:34;9.35;;;6.70;;
27744;SDS011;61387;48.112;8.616;2023-06-10T09:20:02;8.57;;;7.10;;
27744;SDS011;61387;48.112;8.616;2023-06-10T09:22:28;10.00;;;7.80;;
27744;SDS011;61387;48.112;8.616;2023-06-10T09:25:06;10.07;;;7.40;;
27744;SDS011;61387;48.112;8.616;2023-06-10T09:27:50;9.93;;;7.22;;
27744;SDS011;61387;48.112;8.616;2023-06-10T09:30:29;9.07;;;7.35;;
27744;SDS011;61387;48.112;8.616;2023-06-10T09:32:56;8.95;;;7.18;;
27744;SDS011;61387;48.112;8.616;2023-06-10T09:35:23;9.07;;;7.20;;
27744;SDS011;61387;48.112;8.616;2023-06-10T09:37:55;10.10;;;7.75;;
27744;SDS011;61387;48.112;8.616;2023-06-10T09:40:22;9.48;;;6.85;;
27744;SDS011;61387;48.112;8.616;2023-06-10T09:42:55;10.73;;;7.37;;
27744;SDS011;61387;48.112;8.616;2023-06-10T09:45:31;10.75;;;7.50;;
27744;SDS011;61387;48.112;8.616;2023-06-10T09:47:56;8.90;;;7.70;;
27744;SDS011;61387;48.112;8.616;2023-06-10T09:50:22;9.53;;;7.70;;
27744;SDS011;61387;48.112;8.616;2023-06-10T09:52:48;10.55;;;7.78;;
27744;SDS011;61387;48.112;8.616;2023-06-10T09:58:02;9.68;;;7.62;;
27744;SDS011;61387;48.112;8.616;2023-06-10T10:00:28;7.97;;;7.07;;
27744;SDS011;61387;48.112;8.616;2023-06-10T10:02:57;8.68;;;6.95;;
27744;SDS011;61387;48.112;8.616;2023-06-10T10:05:23;9.43;;;8.10;;
27744;SDS011;61387;48.112;8.616;2023-06-10T10:07:49;9.13;;;6.97;;
27744;SDS011;61387;48.112;8.616;2023-06-10T10:10:16;8.98;;;7.47;;
27744;SDS011;61387;48.112;8.616;2023-06-10T10:12:43;8.98;;;6.97;;
27744;SDS011;61387;48.112;8.616;2023-06-10T10:15:12;9.48;;;7.28;;
27744;SDS011;61387;48.112;8.616;2023-06-10T10:17:39;9.37;;;7.07;;
27744;SDS011;61387;48.112;8.616;2023-06-10T10:20:08;8.20;;;6.85;;
27744;SDS011;61387;48.112;8.616;2023-06-10T10:22:39;10.32;;;7.00;;
27744;SDS011;61387;48.112;8.616;2023-06-10T10:25:11;7.60;;;6.47;;
27744;SDS011;61387;48.112;8.616;2023-06-10T10:27:44;7.90;;;6.55;;
27744;SDS011;61387;48.112;8.616;2023-06-10T10:30:14;9.50;;;7.05;;
27744;SDS011;61387;48.112;8.616;2023-06-10T10:32:52;8.68;;;7.05;;
27744;SDS011;61387;48.112;8.616;2023-06-10T10:35:26;7.87;;;6.62;;
27744;SDS011;61387;48.112;8.616;2023-06-10T10:37:52;8.38;;;6.47;;
27744;SDS011;61387;48.112;8.616;2023-06-10T10:40:19;7.78;;;6.53;;
27744;SDS011;61387;48.112;8.616;2023-06-10T10:42:47;7.30;;;6.32;;
27744;SDS011;61387;48.112;8.616;2023-06-10T10:45:13;8.63;;;7.18;;
27744;SDS011;61387;48.112;8.616;2023-06-10T10:47:39;9.88;;;8.80;;
27744;SDS011;61387;48.112;8.616;2023-06-10T10:50:14;8.52;;;6.20;;
27744;SDS011;61387;48.112;8.616;2023-06-10T10:53:00;7.20;;;6.03;;
27744;SDS011;61387;48.112;8.616;2023-06-10T10:55:27;7.47;;;6.57;;
27744;SDS011;61387;48.112;8.616;2023-06-10T10:57:57;8.53;;;7.63;;
27744;SDS011;61387;48.112;8.616;2023-06-10T11:00:25;7.60;;;6.20;;
27744;SDS011;61387;48.112;8.616;2023-06-10T11:02:53;9.23;;;6.93;;
27744;SDS011;61387;48.112;8.616;2023-06-10T11:05:20;9.33;;;6.43;;
27744;SDS011;61387;48.112;8.616;2023-06-10T11:07:57;9.63;;;6.75;;
27744;SDS011;61387;48.112;8.616;2023-06-10T11:10:30;8.07;;;6.00;;
27744;SDS011;61387;48.112;8.616;2023-06-10T11:13:09;7.80;;;6.22;;
27744;SDS011;61387;48.112;8.616;2023-06-10T11:15:40;8.10;;;6.53;;
27744;SDS011;61387;48.112;8.616;2023-06-10T11:18:35;8.25;;;6.45;;
27744;SDS011;61387;48.112;8.616;2023-06-10T11:21:04;9.50;;;6.45;;
27744;SDS011;61387;48.112;8.616;2023-06-10T11:23:40;7.53;;;6.43;;
27744;SDS011;61387;48.112;8.616;2023-06-10T11:28:39;7.18;;;5.82;;
27744;SDS011;61387;48.112;8.616;2023-06-10T11:31:05;7.72;;;5.65;;
27744;SDS011;61387;48.112;8.616;2023-06-10T11:33:31;7.30;;;5.57;;
27744;SDS011;61387;48.112;8.616;2023-06-10T11:35:57;7.03;;;5.68;;
27744;SDS011;61387;48.112;8.616;2023-06-10T11:38:25;6.60;;;5.60;;
27744;SDS011;61387;48.112;8.616;2023-06-10T11:40:52;7.28;;;5.75;;
27744;SDS011;61387;48.112;8.616;2023-06-10T11:43:18;6.17;;;5.27;;
27744;SDS011;61387;48.112;8.616;2023-06-10T11:45:44;5.68;;;4.80;;
27744;SDS011;61387;48.112;8.616;2023-06-10T11:48:10;6.83;;;5.17;;
27744;SDS011;61387;48.112;8.616;2023-06-10T11:50:35;6.83;;;4.83;;
27744;SDS011;61387;48.112;8.616;2023-06-10T11:53:02;9.45;;;5.53;;
27744;SDS011;61387;48.112;8.616;2023-06-10T11:55:41;5.18;;;4.35;;
27744;SDS011;61387;48.112;8.616;2023-06-10T12:00:49;5.80;;;4.20;;
27744;SDS011;61387;48.112;8.616;2023-06-10T12:03:16;5.37;;;4.40;;
27744;SDS011;61387;48.112;8.616;2023-06-10T12:05:55;5.80;;;4.50;;
27744;SDS011;61387;48.112;8.616;2023-06-10T12:08:28;5.22;;;4.47;;
27744;SDS011;61387;48.112;8.616;2023-06-10T12:10:54;4.37;;;3.42;;
27744;SDS011;61387;48.112;8.616;2023-06-10T12:13:21;5.65;;;4.05;;
27744;SDS011;61387;48.112;8.616;2023-06-10T12:15:49;5.12;;;3.75;;
27744;SDS011;61387;48.112;8.616;2023-06-10T12:18:15;6.35;;;4.40;;
27744;SDS011;61387;48.112;8.616;2023-06-10T12:20:44;5.37;;;4.00;;
27744;SDS011;61387;48.112;8.616;2023-06-10T12:23:11;5.60;;;3.78;;
27744;SDS011;61387;48.112;8.616;2023-06-10T12:25:37;5.47;;;3.75;;
27744;SDS011;61387;48.112;8.616;2023-06-10T12:28:03;4.72;;;3.78;;
27744;SDS011;61387;48.112;8.616;2023-06-10T12:30:29;4.30;;;3.70;;
27744;SDS011;61387;48.112;8.616;2023-06-10T12:32:55;6.03;;;4.20;;
27744;SDS011;61387;48.112;8.616;2023-06-10T12:35:22;6.78;;;4.00;;
27744;SDS011;61387;48.112;8.616;2023-06-10T12:37:59;4.50;;;4.00;;
27744;SDS011;61387;48.112;8.616;2023-06-10T12:40:27;4.43;;;3.83;;
27744;SDS011;61387;48.112;8.616;2023-06-10T12:42:53;5.03;;;3.90;;
27744;SDS011;61387;48.112;8.616;2023-06-10T12:45:30;4.90;;;4.40;;
27744;SDS011;61387;48.112;8.616;2023-06-10T12:48:09;5.30;;;3.60;;
27744;SDS011;61387;48.112;8.616;2023-06-10T12:50:36;4.43;;;3.50;;
27744;SDS011;61387;48.112;8.616;2023-06-10T12:53:05;4.75;;;3.95;;
27744;SDS011;61387;48.112;8.616;2023-06-10T12:55:31;4.80;;;3.47;;
27744;SDS011;61387;48.112;8.616;2023-06-10T12:57:58;4.18;;;3.78;;
27744;SDS011;61387;48.112;8.616;2023-06-10T13:00:25;6.65;;;4.00;;
27744;SDS011;61387;48.112;8.616;2023-06-10T13:02:54;4.87;;;3.70;;
27744;SDS011;61387;48.112;8.616;2023-06-10T13:05:20;6.00;;;3.83;;
27744;SDS011;61387;48.112;8.616;2023-06-10T13:07:46;5.57;;;3.67;;
27744;SDS011;61387;48.112;8.616;2023-06-10T13:10:12;6.05;;;4.10;;
27744;SDS011;61387;48.112;8.616;2023-06-10T13:12:39;5.80;;;4.22;;
27744;SDS011;61387;48.112;8.616;2023-06-10T13:15:05;5.43;;;4.07;;
27744;SDS011;61387;48.112;8.616;2023-06-10T13:17:31;5.43;;;4.10;;
27744;SDS011;61387;48.112;8.616;2023-06-10T13:20:02;5.20;;;4.25;;
27744;SDS011;61387;48.112;8.616;2023-06-10T13:22:30;4.32;;;3.90;;
27744;SDS011;61387;48.112;8.616;2023-06-10T13:24:57;4.50;;;3.83;;
27744;SDS011;61387;48.112;8.616;2023-06-10T13:27:24;5.65;;;3.90;;
27744;SDS011;61387;48.112;8.616;2023-06-10T13:29:50;4.50;;;3.77;;
27744;SDS011;61387;48.112;8.616;2023-06-10T13:32:16;6.23;;;4.43;;
27744;SDS011;61387;48.112;8.616;2023-06-10T13:34:41;4.63;;;3.70;;
27744;SDS011;61387;48.112;8.616;2023-06-10T13:37:07;4.30;;;3.67;;
27744;SDS011;61387;48.112;8.616;2023-06-10T13:39:33;4.33;;;3.93;;
27744;SDS011;61387;48.112;8.616;2023-06-10T13:41:59;4.47;;;3.90;;
27744;SDS011;61387;48.112;8.616;2023-06-10T13:44:25;5.10;;;3.97;;
27744;SDS011;61387;48.112;8.616;2023-06-10T13:46:51;4.97;;;3.77;;
27744;SDS011;61387;48.112;8.616;2023-06-10T13:49:17;5.13;;;3.60;;
27744;SDS011;61387;48.112;8.616;2023-06-10T13:51:43;5.00;;;3.57;;
27744;SDS011;61387;48.112;8.616;2023-06-10T13:54:09;6.53;;;4.05;;
27744;SDS011;61387;48.112;8.616;2023-06-10T13:56:35;4.07;;;3.30;;
27744;SDS011;61387;48.112;8.616;2023-06-10T13:59:03;5.30;;;4.00;;
27744;SDS011;61387;48.112;8.616;2023-06-10T14:01:29;6.40;;;4.00;;
27744;SDS011;61387;48.112;8.616;2023-06-10T14:03:55;4.83;;;3.80;;
27744;SDS011;61387;48.112;8.616;2023-06-10T14:06:20;4.40;;;3.37;;
27744;SDS011;61387;48.112;8.616;2023-06-10T14:08:47;4.93;;;3.62;;
27744;SDS011;61387;48.112;8.616;2023-06-10T14:11:13;5.43;;;4.57;;
27744;SDS011;61387;48.112;8.616;2023-06-10T14:13:39;4.35;;;3.67;;
27744;SDS011;61387;48.112;8.616;2023-06-10T14:16:06;5.37;;;3.80;;
27744;SDS011;61387;48.112;8.616;2023-06-10T14:18:32;11.85;;;6.32;;
27744;SDS011;61387;48.112;8.616;2023-06-10T14:20:58;5.40;;;3.93;;
27744;SDS011;61387;48.112;8.616;2023-06-10T14:23:23;5.40;;;3.80;;
27744;SDS011;61387;48.112;8.616;2023-06-10T14:25:50;6.00;;;4.32;;
27744;SDS011;61387;48.112;8.616;2023-06-10T14:28:16;4.23;;;3.63;;
27744;SDS011;61387;48.112;8.616;2023-06-10T14:30:42;5.07;;;4.30;;
27744;SDS011;61387;48.112;8.616;2023-06-10T14:33:07;5.50;;;4.00;;
27744;SDS011;61387;48.112;8.616;2023-06-10T14:35:33;5.93;;;4.53;;
27744;SDS011;61387;48.112;8.616;2023-06-10T14:37:59;5.40;;;4.18;;
27744;SDS011;61387;48.112;8.616;2023-06-10T14:40:25;7.03;;;4.43;;
27744;SDS011;61387;48.112;8.616;2023-06-10T14:42:53;6.70;;;4.60;;
27744;SDS011;61387;48.112;8.616;2023-06-10T14:45:19;6.03;;;4.70;;
27744;SDS011;61387;48.112;8.616;2023-06-10T14:47:45;4.77;;;3.90;;
27744;SDS011;61387;48.112;8.616;2023-06-10T14:50:12;5.53;;;4.28;;
27744;SDS011;61387;48.112;8.616;2023-06-10T14:52:38;4.32;;;3.90;;
27744;SDS011;61387;48.112;8.616;2023-06-10T14:55:04;5.03;;;4.53;;